createdAt,value
2018-11-11T00:00:45.225Z,13.40
2018-11-11T00:03:13.791Z,13.40
2018-11-11T00:05:42.342Z,13.40
2018-11-11T00:08:10.865Z,13.40
2018-11-11T00:10:39.336Z,13.40
2018-11-11T00:13:08.134Z,13.40
2018-11-11T00:15:36.652Z,13.30
2018-11-11T00:18:05.496Z,13.30
2018-11-11T00:20:34.022Z,13.30
2018-11-11T00:23:02.466Z,13.30
2018-11-11T00:25:30.974Z,13.20
2018-11-11T00:27:59.461Z,13.20
2018-11-11T00:30:27.940Z,13.20
2018-11-11T00:32:56.429Z,13.20
2018-11-11T00:35:24.896Z,13.20
2018-11-11T00:37:53.375Z,13.20
2018-11-11T00:40:21.840Z,13.20
2018-11-11T00:42:50.364Z,13.20
2018-11-11T00:45:19.829Z,13.20
2018-11-11T00:47:48.321Z,13.20
2018-11-11T00:50:16.805Z,13.20
2018-11-11T00:52:45.276Z,13.20
2018-11-11T00:55:15.940Z,13.20
2018-11-11T00:57:44.734Z,13.20
2018-11-11T01:00:15.129Z,13.20
2018-11-11T01:02:44.339Z,13.20
2018-11-11T01:05:13.440Z,13.20
2018-11-11T01:07:42.618Z,13.20
2018-11-11T01:10:12.949Z,13.20
2018-11-11T01:12:42.480Z,13.30
2018-11-11T01:15:13.171Z,13.30
2018-11-11T01:17:41.711Z,13.30
2018-11-11T01:20:12.139Z,13.30
2018-11-11T01:22:40.628Z,13.20
2018-11-11T01:25:11.111Z,13.20
2018-11-11T01:27:39.706Z,13.20
2018-11-11T01:30:08.653Z,13.20
2018-11-11T01:32:37.497Z,13.10
2018-11-11T01:35:07.791Z,13.10
2018-11-11T01:37:36.293Z,13.10
2018-11-11T01:40:05.377Z,13.10
2018-11-11T01:42:33.861Z,13.10
2018-11-11T01:45:02.386Z,13.10
2018-11-11T01:47:30.828Z,13.00
2018-11-11T01:49:59.313Z,13.00
2018-11-11T01:52:27.853Z,13.00
2018-11-11T01:54:56.373Z,13.00
2018-11-11T01:57:24.848Z,13.00
2018-11-11T01:59:53.341Z,13.00
2018-11-11T02:02:21.815Z,13.00
2018-11-11T02:04:50.292Z,13.00
2018-11-11T02:07:18.803Z,13.00
2018-11-11T02:09:47.325Z,13.00
2018-11-11T02:12:15.752Z,13.00
2018-11-11T02:14:44.338Z,13.00
2018-11-11T02:17:12.871Z,13.00
2018-11-11T02:19:41.438Z,13.00
2018-11-11T02:22:09.873Z,12.90
2018-11-11T02:24:38.381Z,13.00
2018-11-11T02:27:06.957Z,13.00
2018-11-11T02:29:35.430Z,13.00
2018-11-11T02:32:03.946Z,13.00
2018-11-11T02:34:32.425Z,13.00
2018-11-11T02:38:03.981Z,13.00
2018-11-11T02:40:32.436Z,13.00
2018-11-11T02:43:00.883Z,13.00
2018-11-11T02:45:29.405Z,13.00
2018-11-11T02:47:57.940Z,13.00
2018-11-11T02:50:26.448Z,13.00
2018-11-11T02:52:55.297Z,13.00
2018-11-11T02:55:23.720Z,13.10
2018-11-11T02:57:52.169Z,13.10
2018-11-11T03:00:21.533Z,13.10
2018-11-11T03:02:50.316Z,13.10
2018-11-11T03:05:19.625Z,13.10
2018-11-11T03:07:48.060Z,13.10
2018-11-11T03:10:17.192Z,13.10
2018-11-11T03:12:46.482Z,13.10
2018-11-11T03:15:15.567Z,13.10
2018-11-11T03:17:44.361Z,13.20
2018-11-11T03:20:13.569Z,13.20
2018-11-11T03:22:42.108Z,13.20
2018-11-11T03:25:11.896Z,13.20
2018-11-11T03:27:40.722Z,13.20
2018-11-11T03:30:10.884Z,13.10
2018-11-11T03:32:39.768Z,13.10
2018-11-11T03:35:10.010Z,13.10
2018-11-11T03:37:38.472Z,13.10
2018-11-11T03:40:10.644Z,13.00
2018-11-11T03:42:39.166Z,13.00
2018-11-11T03:45:09.968Z,12.90
2018-11-11T03:47:38.468Z,12.90
2018-11-11T03:50:08.046Z,12.80
2018-11-11T03:52:36.533Z,12.80
2018-11-11T03:55:05.705Z,12.80
2018-11-11T03:57:34.506Z,12.80
2018-11-11T04:00:03.474Z,12.80
2018-11-11T04:02:32.192Z,12.80
2018-11-11T04:05:00.732Z,12.70
2018-11-11T04:07:29.269Z,12.80
2018-11-11T04:09:57.762Z,12.80
2018-11-11T04:12:26.203Z,12.80
2018-11-11T04:14:54.725Z,12.80
2018-11-11T04:17:23.175Z,12.80
2018-11-11T04:19:51.685Z,12.70
2018-11-11T04:22:20.764Z,12.80
2018-11-11T04:24:50.584Z,12.70
2018-11-11T04:27:19.384Z,12.80
2018-11-11T04:29:47.820Z,12.80
2018-11-11T04:32:16.308Z,12.80
2018-11-11T04:34:44.804Z,12.80
2018-11-11T04:37:13.317Z,12.90
2018-11-11T04:39:42.194Z,12.90
2018-11-11T04:42:10.682Z,12.90
2018-11-11T04:44:39.137Z,12.90
2018-11-11T04:47:07.708Z,12.90
2018-11-11T04:49:36.206Z,12.90
2018-11-11T04:52:05.169Z,12.90
2018-11-11T04:54:33.678Z,12.90
2018-11-11T04:57:02.180Z,12.90
2018-11-11T04:59:30.647Z,12.90
2018-11-11T05:01:59.257Z,12.80
2018-11-11T05:04:27.807Z,13.00
2018-11-11T05:06:56.206Z,13.00
2018-11-11T05:09:24.665Z,13.00
2018-11-11T05:11:53.229Z,13.00
2018-11-11T05:14:21.753Z,13.00
2018-11-11T05:16:50.221Z,13.00
2018-11-11T05:19:18.713Z,12.90
2018-11-11T05:21:47.256Z,12.90
2018-11-11T05:24:15.661Z,12.90
2018-11-11T05:26:44.167Z,12.90
2018-11-11T05:29:12.738Z,12.90
2018-11-11T05:31:41.286Z,12.90
2018-11-11T05:34:09.784Z,12.90
2018-11-11T05:36:38.275Z,12.90
2018-11-11T05:39:09.629Z,12.90
2018-11-11T05:41:38.169Z,12.90
2018-11-11T05:44:06.905Z,12.90
2018-11-11T05:46:35.387Z,12.90
2018-11-11T05:49:04.171Z,12.90
2018-11-11T05:51:32.649Z,13.00
2018-11-11T05:54:01.153Z,13.00
2018-11-11T05:56:29.645Z,13.10
2018-11-11T05:58:58.158Z,13.10
2018-11-11T06:01:26.724Z,13.10
2018-11-11T06:03:55.157Z,13.10
2018-11-11T06:06:23.652Z,13.10
2018-11-11T06:08:52.117Z,13.00
2018-11-11T06:11:20.737Z,13.10
2018-11-11T06:13:49.184Z,13.10
2018-11-11T06:16:17.756Z,13.10
2018-11-11T06:18:46.304Z,13.10
2018-11-11T06:21:14.748Z,13.10
2018-11-11T06:23:43.240Z,13.10
2018-11-11T06:26:11.709Z,13.10
2018-11-11T06:28:40.216Z,13.10
2018-11-11T06:31:08.685Z,13.10
2018-11-11T06:33:37.149Z,13.10
2018-11-11T06:36:05.841Z,13.10
2018-11-11T06:38:34.310Z,13.10
2018-11-11T06:41:02.865Z,13.10
2018-11-11T06:43:31.390Z,13.10
2018-11-11T06:45:59.840Z,13.10
2018-11-11T06:48:28.418Z,13.10
2018-11-11T06:50:56.925Z,13.20
2018-11-11T06:53:25.396Z,13.20
2018-11-11T06:55:54.733Z,13.20
2018-11-11T06:58:23.195Z,13.30
2018-11-11T07:00:51.737Z,13.30
2018-11-11T07:03:31.458Z,13.30
2018-11-11T07:05:59.948Z,13.30
2018-11-11T07:08:28.381Z,13.30
2018-11-11T07:10:56.874Z,13.30
2018-11-11T07:13:25.375Z,13.30
2018-11-11T07:15:53.878Z,13.40
2018-11-11T07:18:22.704Z,13.40
2018-11-11T07:20:51.230Z,13.40
2018-11-11T07:23:19.761Z,13.40
2018-11-11T07:25:48.277Z,13.50
2018-11-11T07:28:16.771Z,13.50
2018-11-11T07:30:45.265Z,13.60
2018-11-11T07:33:13.712Z,13.60
2018-11-11T07:35:42.195Z,13.60
2018-11-11T07:38:10.681Z,13.60
2018-11-11T07:40:39.222Z,13.60
2018-11-11T07:43:07.734Z,13.60
2018-11-11T07:45:36.220Z,13.70
2018-11-11T07:48:05.241Z,13.70
2018-11-11T07:50:33.713Z,13.70
2018-11-11T07:53:02.161Z,13.70
2018-11-11T07:55:30.721Z,13.70
2018-11-11T07:57:59.220Z,13.70
2018-11-11T08:00:27.928Z,13.70
2018-11-11T08:02:56.434Z,13.70
2018-11-11T08:05:24.884Z,13.70
2018-11-11T08:07:53.467Z,13.70
2018-11-11T08:10:33.330Z,13.80
2018-11-11T08:13:02.014Z,13.80
2018-11-11T08:15:30.507Z,13.80
2018-11-11T08:17:59.193Z,13.80
2018-11-11T08:20:27.693Z,13.80
2018-11-11T08:22:56.199Z,13.80
2018-11-11T08:25:24.728Z,13.90
2018-11-11T08:27:53.344Z,13.90
2018-11-11T08:30:21.864Z,13.80
2018-11-11T08:32:50.410Z,13.90
2018-11-11T08:35:18.904Z,13.90
2018-11-11T08:37:47.380Z,14.00
2018-11-11T08:40:15.829Z,14.00
2018-11-11T08:42:44.352Z,13.90
2018-11-11T08:45:14.231Z,13.90
2018-11-11T08:47:43.769Z,13.90
2018-11-11T08:50:13.248Z,13.80
2018-11-11T08:52:42.070Z,13.90
2018-11-11T08:55:10.672Z,13.90
2018-11-11T08:57:39.325Z,14.00
2018-11-11T09:00:10.676Z,14.10
2018-11-11T09:02:39.301Z,14.20
2018-11-11T09:05:08.145Z,14.30
2018-11-11T09:07:36.916Z,14.30
2018-11-11T09:10:07.073Z,14.40
2018-11-11T09:12:35.682Z,14.40
2018-11-11T09:15:04.458Z,14.50
2018-11-11T09:17:32.898Z,14.60
2018-11-11T09:20:01.472Z,14.60
2018-11-11T09:22:30.094Z,14.60
2018-11-11T09:24:58.565Z,14.80
2018-11-11T09:27:27.116Z,14.80
2018-11-11T09:29:55.700Z,15.00
2018-11-11T09:32:24.431Z,15.10
2018-11-11T09:34:52.946Z,15.20
2018-11-11T09:37:21.617Z,15.40
2018-11-11T09:39:50.100Z,15.50
2018-11-11T09:42:18.650Z,15.60
2018-11-11T09:44:47.183Z,15.70
2018-11-11T09:47:15.738Z,15.80
2018-11-11T09:49:44.349Z,15.80
2018-11-11T09:52:12.997Z,15.70
2018-11-11T09:54:41.627Z,15.70
2018-11-11T09:57:10.256Z,15.60
2018-11-11T09:59:38.734Z,15.50
2018-11-11T10:02:07.348Z,15.50
2018-11-11T10:04:44.919Z,15.50
2018-11-11T10:07:17.666Z,15.50
2018-11-11T10:09:51.314Z,15.50
2018-11-11T10:12:27.361Z,15.50
2018-11-11T10:15:05.830Z,15.50
2018-11-11T10:17:41.782Z,15.50
2018-11-11T10:20:18.449Z,15.50
2018-11-11T10:23:10.810Z,15.50
2018-11-11T10:25:48.791Z,15.40
2018-11-11T10:28:24.155Z,15.50
2018-11-11T10:31:00.710Z,15.50
2018-11-11T10:33:34.462Z,15.50
2018-11-11T10:36:08.417Z,15.60
2018-11-11T10:39:09.361Z,15.70
2018-11-11T10:43:46.858Z,15.60
2018-11-11T10:47:18.084Z,15.60
2018-11-11T10:50:03.817Z,15.50
2018-11-11T10:52:32.392Z,15.50
2018-11-11T10:55:00.932Z,15.60
2018-11-11T10:57:29.525Z,15.60
2018-11-11T10:59:58.165Z,15.70
2018-11-11T11:02:27.578Z,15.70
2018-11-11T11:05:01.532Z,15.70
2018-11-11T11:07:30.013Z,15.70
2018-11-11T11:09:58.519Z,15.70
2018-11-11T11:12:26.979Z,15.70
2018-11-11T11:14:55.486Z,15.70
2018-11-11T11:17:24.025Z,15.80
2018-11-11T11:19:52.491Z,15.90
2018-11-11T11:22:21.005Z,15.90
2018-11-11T11:24:49.445Z,15.90
2018-11-11T11:27:18.007Z,16.00
2018-11-11T11:29:46.453Z,16.00
2018-11-11T11:32:15.091Z,16.10
2018-11-11T11:34:43.555Z,16.20
2018-11-11T11:37:12.072Z,16.20
2018-11-11T11:39:40.533Z,16.30
2018-11-11T11:42:09.033Z,16.30
2018-11-11T11:44:37.591Z,16.40
2018-11-11T11:47:06.604Z,16.40
2018-11-11T11:49:35.127Z,16.30
2018-11-11T11:52:03.710Z,16.40
2018-11-11T11:54:32.177Z,16.40
2018-11-11T11:57:00.676Z,16.50
2018-11-11T11:59:29.156Z,16.50
2018-11-11T12:03:00.911Z,16.40
2018-11-11T12:05:29.405Z,16.30
2018-11-11T12:07:57.877Z,16.30
2018-11-11T12:10:26.349Z,16.30
2018-11-11T12:12:54.813Z,16.20
2018-11-11T12:15:23.416Z,16.20
2018-11-11T12:17:52.005Z,16.10
2018-11-11T12:20:20.464Z,16.10
2018-11-11T12:22:48.966Z,16.00
2018-11-11T12:25:17.497Z,16.00
2018-11-11T12:27:46.012Z,15.90
2018-11-11T12:30:14.513Z,15.90
2018-11-11T12:32:43.014Z,15.80
2018-11-11T12:35:11.522Z,15.80
2018-11-11T12:37:39.984Z,15.80
2018-11-11T12:40:10.062Z,15.80
2018-11-11T12:42:38.326Z,15.70
2018-11-11T12:45:07.700Z,15.80
2018-11-11T12:47:36.266Z,15.70
2018-11-11T12:50:05.090Z,15.70
2018-11-11T12:52:33.626Z,15.70
2018-11-11T12:55:02.106Z,15.70
2018-11-11T12:57:30.636Z,15.70
2018-11-11T12:59:59.147Z,15.70
2018-11-11T13:02:27.644Z,15.70
2018-11-11T13:04:56.599Z,15.70
2018-11-11T13:07:25.323Z,15.70
2018-11-11T13:09:53.881Z,15.60
2018-11-11T13:12:22.537Z,15.60
2018-11-11T13:14:50.924Z,15.60
2018-11-11T13:17:19.465Z,15.60
2018-11-11T13:19:47.918Z,15.60
2018-11-11T13:22:16.530Z,15.60
2018-11-11T13:24:44.925Z,15.60
2018-11-11T13:27:13.403Z,15.60
2018-11-11T13:29:41.836Z,15.60
2018-11-11T13:32:10.340Z,15.60
2018-11-11T13:34:38.819Z,15.50
2018-11-11T13:37:07.300Z,15.50
2018-11-11T13:39:35.812Z,15.50
2018-11-11T13:42:04.409Z,15.50
2018-11-11T13:44:32.833Z,15.40
2018-11-11T13:47:01.388Z,15.40
2018-11-11T13:49:29.797Z,15.30
2018-11-11T13:51:58.332Z,15.30
2018-11-11T13:54:26.761Z,15.20
2018-11-11T13:56:55.258Z,15.20
2018-11-11T13:59:23.778Z,15.10
2018-11-11T14:01:52.276Z,15.10
2018-11-11T14:04:20.797Z,15.10
2018-11-11T14:06:49.289Z,15.00
2018-11-11T14:09:19.243Z,15.00
2018-11-11T14:11:47.759Z,15.00
2018-11-11T14:14:16.263Z,15.00
2018-11-11T14:16:44.739Z,14.90
2018-11-11T14:19:13.576Z,14.90
2018-11-11T14:21:41.728Z,14.80
2018-11-11T14:24:10.164Z,14.80
2018-11-11T14:26:38.932Z,14.70
2018-11-11T14:29:07.357Z,14.70
2018-11-11T14:31:35.871Z,14.60
2018-11-11T14:34:04.591Z,14.60
2018-11-11T14:36:33.172Z,14.60
2018-11-11T14:39:01.707Z,14.50
2018-11-11T14:41:30.201Z,14.50
2018-11-11T14:43:58.656Z,14.50
2018-11-11T14:46:27.149Z,14.50
2018-11-11T14:48:55.657Z,14.50
2018-11-11T14:51:24.129Z,14.40
2018-11-11T14:53:52.634Z,14.40
2018-11-11T14:56:21.132Z,14.40
2018-11-11T14:58:49.839Z,14.40
2018-11-11T15:01:19.167Z,14.40
2018-11-11T15:03:47.649Z,14.40
2018-11-11T15:06:16.141Z,14.40
2018-11-11T15:08:44.614Z,14.40
2018-11-11T15:11:13.185Z,14.30
2018-11-11T15:13:41.673Z,14.30
2018-11-11T15:16:10.190Z,14.30
2018-11-11T15:18:38.756Z,14.30
2018-11-11T15:21:07.301Z,14.20
2018-11-11T15:23:35.680Z,14.20
2018-11-11T15:26:04.429Z,14.20
2018-11-11T15:28:32.931Z,14.20
2018-11-11T15:31:01.662Z,14.20
2018-11-11T15:33:29.957Z,14.20
2018-11-11T15:35:58.461Z,14.10
2018-11-11T15:38:26.892Z,14.10
2018-11-11T15:40:55.442Z,14.10
2018-11-11T15:43:23.947Z,14.10
2018-11-11T15:45:52.489Z,14.10
2018-11-11T15:48:20.917Z,14.10
2018-11-11T15:50:49.416Z,14.20
2018-11-11T15:53:17.917Z,14.20
2018-11-11T15:55:46.406Z,14.20
2018-11-11T15:58:14.833Z,14.20
2018-11-11T16:00:43.737Z,14.20
2018-11-11T16:03:12.655Z,14.10
2018-11-11T16:05:41.163Z,14.10
2018-11-11T16:08:09.608Z,14.10
2018-11-11T16:10:38.092Z,14.20
2018-11-11T16:13:06.610Z,14.10
2018-11-11T16:15:36.584Z,14.10
2018-11-11T16:19:34.832Z,14.10
2018-11-11T16:22:03.380Z,14.10
2018-11-11T16:24:31.910Z,14.10
2018-11-11T16:27:01.608Z,14.10
2018-11-11T16:29:30.210Z,14.20
2018-11-11T16:31:58.592Z,14.20
2018-11-11T16:34:27.073Z,14.20
2018-11-11T16:36:55.642Z,14.20
2018-11-11T16:39:24.092Z,14.20
2018-11-11T16:41:52.552Z,14.20
2018-11-11T16:44:21.038Z,14.20
2018-11-11T16:46:49.585Z,14.20
2018-11-11T16:49:18.119Z,14.20
2018-11-11T16:51:46.607Z,14.20
2018-11-11T16:54:15.144Z,14.30
2018-11-11T16:56:43.595Z,14.20
2018-11-11T16:59:12.117Z,14.20
2018-11-11T17:01:40.600Z,14.30
2018-11-11T17:04:09.181Z,14.30
2018-11-11T17:06:37.679Z,14.30
2018-11-11T17:09:09.838Z,14.30
2018-11-11T17:11:38.575Z,14.30
2018-11-11T17:14:07.229Z,14.30
2018-11-11T17:16:35.757Z,14.30
2018-11-11T17:19:04.317Z,14.30
2018-11-11T17:21:32.992Z,14.30
2018-11-11T17:24:01.430Z,14.40
2018-11-11T17:26:29.932Z,14.30
2018-11-11T17:28:58.466Z,14.40
2018-11-11T17:31:27.032Z,14.30
2018-11-11T17:33:55.472Z,14.30
2018-11-11T17:36:23.971Z,14.30
2018-11-11T17:38:52.502Z,14.20
2018-11-11T17:41:21.009Z,14.30
2018-11-11T17:43:49.655Z,14.30
2018-11-11T17:46:18.105Z,14.30
2018-11-11T17:48:46.645Z,14.30
2018-11-11T17:51:15.130Z,14.30
2018-11-11T17:53:43.657Z,14.30
2018-11-11T17:56:12.171Z,14.30
2018-11-11T17:58:40.716Z,14.30
2018-11-11T18:01:09.219Z,14.30
2018-11-11T18:03:37.661Z,14.30
2018-11-11T18:06:06.145Z,14.30
2018-11-11T18:08:34.625Z,14.30
2018-11-11T18:11:03.117Z,14.30
2018-11-11T18:13:31.889Z,14.20
2018-11-11T18:16:00.389Z,14.20
2018-11-11T18:18:28.828Z,14.20
2018-11-11T18:20:57.356Z,14.20
2018-11-11T18:23:25.801Z,14.20
2018-11-11T18:25:54.326Z,14.20
2018-11-11T18:28:22.862Z,14.20
2018-11-11T18:30:51.248Z,14.20
2018-11-11T18:33:19.762Z,14.20
2018-11-11T18:35:48.205Z,14.10
2018-11-11T18:38:16.699Z,14.10
2018-11-11T18:40:45.269Z,14.10
2018-11-11T18:43:14.829Z,14.10
2018-11-11T18:45:43.353Z,14.00
2018-11-11T18:48:11.927Z,13.90
2018-11-11T18:50:40.500Z,13.90
2018-11-11T18:53:09.039Z,13.90
2018-11-11T18:55:37.519Z,13.80
2018-11-11T18:58:06.026Z,13.80
2018-11-11T19:00:35.221Z,13.70
2018-11-11T19:03:03.713Z,13.70
2018-11-11T19:05:32.169Z,13.70
2018-11-11T19:08:00.680Z,13.60
2018-11-11T19:10:30.645Z,13.60
2018-11-11T19:13:02.652Z,13.50
2018-11-11T19:15:31.097Z,13.50
2018-11-11T19:17:59.860Z,13.40
2018-11-11T19:20:28.705Z,13.40
2018-11-11T19:22:57.244Z,13.40
2018-11-11T19:25:28.221Z,13.40
2018-11-11T19:27:57.509Z,13.30
2018-11-11T19:30:27.095Z,13.40
2018-11-11T19:32:55.696Z,13.40
2018-11-11T19:35:24.333Z,13.30
2018-11-11T19:37:54.109Z,13.30
2018-11-11T19:40:24.073Z,13.20
2018-11-11T19:42:53.511Z,13.20
2018-11-11T19:45:23.432Z,13.20
2018-11-11T19:47:51.942Z,13.20
2018-11-11T19:50:21.738Z,13.30
2018-11-11T19:52:51.349Z,13.20
2018-11-11T19:55:20.432Z,13.20
2018-11-11T19:57:49.140Z,13.20
2018-11-11T20:00:21.100Z,13.20
2018-11-11T20:02:50.457Z,13.10
2018-11-11T20:05:19.580Z,13.10
2018-11-11T20:07:49.380Z,13.10
2018-11-11T20:10:20.676Z,13.00
2018-11-11T20:12:49.141Z,13.00
2018-11-11T20:15:19.261Z,13.00
2018-11-11T20:17:51.090Z,13.00
2018-11-11T20:20:22.166Z,13.00
2018-11-11T20:22:50.956Z,13.00
2018-11-11T20:25:20.310Z,13.10
2018-11-11T20:27:49.010Z,13.10
2018-11-11T20:30:20.899Z,13.00
2018-11-11T20:32:51.168Z,13.00
2018-11-11T20:35:21.269Z,13.10
2018-11-11T20:37:49.748Z,13.00
2018-11-11T20:40:19.645Z,13.10
2018-11-11T20:42:48.625Z,13.10
2018-11-11T20:45:21.773Z,13.10
2018-11-11T20:47:50.912Z,13.10
2018-11-11T20:50:24.525Z,13.10
2018-11-11T20:52:55.552Z,13.10
2018-11-11T20:55:24.081Z,13.10
2018-11-11T20:57:53.249Z,13.10
2018-11-11T21:00:25.000Z,13.00
2018-11-11T21:02:53.592Z,13.00
2018-11-11T21:05:24.620Z,13.00
2018-11-11T21:07:53.221Z,12.90
2018-11-11T21:10:22.978Z,12.90
2018-11-11T21:12:53.234Z,12.80
2018-11-11T21:15:27.339Z,12.80
2018-11-11T21:17:57.121Z,12.80
2018-11-11T21:20:26.969Z,12.80
2018-11-11T21:22:55.608Z,12.80
2018-11-11T21:25:24.231Z,12.80
2018-11-11T21:27:52.742Z,12.70
2018-11-11T21:30:23.569Z,12.70
2018-11-11T21:32:52.053Z,12.70
2018-11-11T21:35:20.843Z,12.70
2018-11-11T21:37:49.690Z,12.70
2018-11-11T21:40:21.648Z,12.70
2018-11-11T21:42:50.884Z,12.80
2018-11-11T21:45:21.629Z,12.70
2018-11-11T21:47:50.376Z,12.80
2018-11-11T21:50:26.344Z,12.80
2018-11-11T21:53:02.006Z,12.80
2018-11-11T21:55:31.143Z,12.80
2018-11-11T21:58:00.096Z,12.80
2018-11-11T22:00:29.833Z,12.80
2018-11-11T22:02:58.654Z,12.70
2018-11-11T22:05:27.280Z,12.80
2018-11-11T22:07:55.835Z,12.80
2018-11-11T22:10:24.418Z,12.80
2018-11-11T22:12:52.930Z,12.80
2018-11-11T22:15:21.518Z,12.80
2018-11-11T22:17:50.004Z,12.80
2018-11-11T22:20:19.330Z,12.80
2018-11-11T22:22:47.787Z,12.80
2018-11-11T22:25:16.296Z,12.80
2018-11-11T22:27:44.762Z,12.80
2018-11-11T22:30:13.235Z,12.80
2018-11-11T22:32:41.745Z,12.80
2018-11-11T22:35:11.196Z,12.80
2018-11-11T22:37:39.974Z,12.80
2018-11-11T22:40:12.192Z,12.90
2018-11-11T22:42:40.750Z,12.90
2018-11-11T22:45:13.768Z,12.80
2018-11-11T22:47:43.115Z,12.90
2018-11-11T22:50:13.499Z,12.90
2018-11-11T22:52:42.180Z,12.80
2018-11-11T22:55:11.812Z,12.80
2018-11-11T22:57:40.972Z,12.70
2018-11-11T23:00:21.461Z,12.70
2018-11-11T23:02:50.639Z,12.70
2018-11-11T23:05:20.240Z,12.70
2018-11-11T23:07:51.056Z,12.70
2018-11-11T23:10:19.638Z,12.70
2018-11-11T23:12:48.284Z,12.70
2018-11-11T23:15:18.057Z,12.70
2018-11-11T23:17:46.541Z,12.70
2018-11-11T23:20:16.340Z,12.70
2018-11-11T23:22:44.873Z,12.70
2018-11-11T23:25:15.864Z,12.70
2018-11-11T23:27:45.133Z,12.60
2018-11-11T23:30:17.271Z,12.60
2018-11-11T23:32:47.502Z,12.60
2018-11-11T23:35:15.952Z,12.60
2018-11-11T23:37:46.010Z,12.60
2018-11-11T23:40:15.681Z,12.50
2018-11-11T23:42:45.699Z,12.50
2018-11-11T23:45:15.128Z,12.50
2018-11-11T23:47:43.607Z,12.50
2018-11-11T23:50:15.284Z,12.50
2018-11-11T23:52:44.691Z,12.50
2018-11-11T23:55:14.593Z,12.40
2018-11-11T23:57:43.157Z,12.40
